Time;durP1;ratioP1;P1;durP2;ratioP2;P2;SDS_P1;SDS_P2;PMS_P1;PMS_P2;Temp;Humidity;BMP_temperature;BMP_pressure;BME280_temperature;BME280_humidity;BME280_pressure;Samples;Min_cycle;Max_cycle;Signal;HPM_P1;HPM_P2
2023/03/28 00:01:00;;;;;;;1.43;0.50;;;1.00;99.90;;;;;;4144854;28;20338;-63
2023/03/28 00:03:01;;;;;;;2.20;0.93;;;1.00;99.90;;;;;;4144855;28;20288;-74
2023/03/28 00:05:03;;;;;;;1.77;0.93;;;1.00;99.90;;;;;;4144225;28;20279;-64
2023/03/28 00:07:04;;;;;;;4.23;1.00;;;1.00;99.90;;;;;;4144869;28;20283;-64
2023/03/28 00:09:06;;;;;;;1.87;1.00;;;1.00;99.90;;;;;;4148320;28;20720;-62
2023/03/28 00:11:25;;;;;;;1.17;1.00;;;1.00;99.90;;;;;;4152449;28;20717;-63
2023/03/28 00:13:28;;;;;;;1.57;0.80;;;1.00;99.90;;;;;;4159905;28;20820;-63
2023/03/28 00:15:30;;;;;;;1.30;1.00;;;1.00;99.90;;;;;;4161318;28;20259;-63
2023/03/28 00:17:32;;;;;;;0.70;0.53;;;1.00;99.90;;;;;;4160804;28;20275;-63
2023/03/28 00:19:33;;;;;;;2.10;0.97;;;1.00;99.90;;;;;;4161035;28;20376;-70
2023/03/28 00:21:38;;;;;;;1.23;1.00;;;1.10;99.90;;;;;;4160497;28;20341;-63
2023/03/28 00:23:41;;;;;;;1.53;0.80;;;1.10;99.90;;;;;;4160710;28;20271;-62
2023/03/28 00:25:42;;;;;;;0.90;0.70;;;1.10;99.90;;;;;;4158187;28;20286;-63
2023/03/28 00:27:43;;;;;;;0.70;0.60;;;1.10;99.90;;;;;;4144838;28;20756;-63
2023/03/28 00:29:45;;;;;;;1.20;0.70;;;1.00;99.90;;;;;;4144493;28;20345;-63
2023/03/28 00:31:48;;;;;;;1.43;0.70;;;1.00;99.90;;;;;;4144312;28;20321;-63
2023/03/28 00:33:49;;;;;;;0.63;0.63;;;1.00;99.90;;;;;;4144107;28;20361;-64
2023/03/28 00:35:50;;;;;;;1.60;1.30;;;1.00;99.90;;;;;;4144319;28;20333;-64
2023/03/28 00:37:56;;;;;;;2.13;1.13;;;1.00;99.90;;;;;;4150865;28;20336;-64
2023/03/28 00:39:58;;;;;;;2.63;1.00;;;0.90;99.90;;;;;;4158728;28;20678;-63
2023/03/28 00:42:03;;;;;;;2.63;1.40;;;0.90;99.90;;;;;;4152756;28;20807;-62
2023/03/28 00:44:40;;;;;;;2.23;1.10;;;0.90;99.90;;;;;;4158536;28;20278;-68
2023/03/28 00:46:41;;;;;;;2.27;1.10;;;0.90;99.90;;;;;;4149450;28;20334;-63
2023/03/28 00:48:50;;;;;;;1.03;0.83;;;0.80;99.90;;;;;;4143609;28;20321;-63
2023/03/28 00:50:51;;;;;;;0.70;0.60;;;0.80;99.90;;;;;;4149540;28;20603;-63
2023/03/28 00:53:13;;;;;;;0.70;0.70;;;0.80;99.90;;;;;;4145237;28;20283;-70
2023/03/28 00:55:22;;;;;;;0.60;0.53;;;0.80;99.90;;;;;;4144333;28;20279;-62
2023/03/28 00:57:25;;;;;;;1.37;0.60;;;0.80;99.90;;;;;;4145211;28;20275;-63
2023/03/28 00:59:30;;;;;;;0.50;0.50;;;0.80;99.90;;;;;;4154678;28;20385;-63
2023/03/28 01:01:31;;;;;;;0.63;0.33;;;0.80;99.90;;;;;;4144966;28;20613;-64
2023/03/28 01:03:34;;;;;;;0.70;0.50;;;0.80;99.90;;;;;;4144427;28;20802;-74
2023/03/28 01:05:35;;;;;;;0.60;0.40;;;0.80;99.90;;;;;;4143872;28;20318;-67
2023/03/28 01:07:44;;;;;;;2.33;0.47;;;0.80;99.90;;;;;;4145196;28;20295;-62
2023/03/28 01:09:47;;;;;;;2.30;0.47;;;0.80;99.90;;;;;;4145509;28;20283;-63
2023/03/28 01:11:48;;;;;;;1.03;0.30;;;0.80;99.90;;;;;;4160501;28;20266;-62
2023/03/28 01:13:51;;;;;;;0.80;0.47;;;0.80;99.90;;;;;;4146624;28;20813;-63
2023/03/28 01:15:53;;;;;;;0.67;0.40;;;0.80;99.90;;;;;;4144207;28;20317;-64
2023/03/28 01:17:56;;;;;;;0.40;0.30;;;0.80;99.90;;;;;;4144066;28;20783;-62
2023/03/28 01:20:16;;;;;;;0.77;0.77;;;0.80;99.90;;;;;;4143804;28;20334;-64
2023/03/28 01:22:55;;;;;;;0.82;0.75;;;0.80;99.90;;;;;;4143983;28;20286;-64
2023/03/28 01:25:45;;;;;;;0.73;0.63;;;0.80;99.90;;;;;;4144060;28;20034;-63
2023/03/28 01:28:01;;;;;;;0.90;0.67;;;0.70;99.90;;;;;;4128659;28;20429;-62
2023/03/28 01:30:20;;;;;;;1.90;0.80;;;0.70;99.90;;;;;;4155112;28;20759;-67
2023/03/28 01:32:58;;;;;;;1.30;1.20;;;0.70;99.90;;;;;;4153633;28;20345;-63
2023/03/28 01:35:44;;;;;;;0.73;0.70;;;0.70;99.90;;;;;;4160110;28;20271;-63
2023/03/28 01:38:00;;;;;;;5.53;1.10;;;0.70;99.90;;;;;;4112278;28;20755;-63
2023/03/28 01:40:21;;;;;;;1.10;0.90;;;0.70;99.90;;;;;;4159878;28;20262;-73
2023/03/28 01:42:37;;;;;;;1.17;0.90;;;0.60;99.90;;;;;;4158951;28;20271;-63
2023/03/28 01:44:51;;;;;;;1.37;1.07;;;0.60;99.90;;;;;;4134507;28;20042;-64
2023/03/28 01:46:59;;;;;;;1.80;1.13;;;0.60;99.90;;;;;;4143863;28;20330;-67
2023/03/28 01:49:09;;;;;;;2.37;1.30;;;0.70;99.90;;;;;;4143598;28;20256;-66
2023/03/28 01:51:40;;;;;;;;;;;0.60;99.90;;;;;;4143664;28;20825;-64
2023/03/28 01:54:22;;;;;;;1.20;0.90;;;0.60;99.90;;;;;;4093170;29;19910;-73
2023/03/28 01:56:23;;;;;;;2.10;1.37;;;0.70;99.90;;;;;;4127381;28;20322;-64
2023/03/28 01:58:49;;;;;;;1.87;1.37;;;0.70;99.90;;;;;;4136366;28;20271;-65
2023/03/28 02:01:22;;;;;;;1.10;0.90;;;0.70;99.90;;;;;;4156146;28;20274;-64
2023/03/28 02:03:48;;;;;;;1.53;1.13;;;0.70;99.90;;;;;;4162133;28;20685;-64
2023/03/28 02:05:51;;;;;;;1.27;0.80;;;0.70;99.90;;;;;;4161289;28;20263;-63
2023/03/28 02:07:53;;;;;;;1.20;1.10;;;0.70;99.90;;;;;;4161610;28;20832;-65
2023/03/28 02:09:55;;;;;;;1.20;1.10;;;0.70;99.90;;;;;;4163105;28;20306;-65
2023/03/28 02:12:01;;;;;;;1.20;1.10;;;0.70;99.90;;;;;;4160677;28;20336;-64
2023/03/28 02:14:10;;;;;;;3.23;1.10;;;0.70;99.90;;;;;;4147151;28;20306;-68
2023/03/28 02:16:13;;;;;;;6.50;1.30;;;0.70;99.90;;;;;;4146875;28;20341;-63
2023/03/28 02:18:22;;;;;;;2.43;1.30;;;0.70;99.90;;;;;;4153432;28;20670;-63
2023/03/28 02:20:27;;;;;;;1.70;1.10;;;0.70;99.90;;;;;;4162828;28;20340;-64
2023/03/28 02:22:37;;;;;;;1.57;1.27;;;0.70;99.90;;;;;;4158678;28;20340;-64
2023/03/28 02:24:38;;;;;;;1.37;1.17;;;0.60;99.90;;;;;;4146604;28;20318;-63
2023/03/28 02:26:40;;;;;;;2.23;1.50;;;0.70;99.90;;;;;;4155161;28;20271;-64
2023/03/28 02:28:43;;;;;;;2.00;1.20;;;0.60;99.90;;;;;;4158936;28;20670;-64
2023/03/28 02:30:45;;;;;;;1.73;1.53;;;0.60;99.90;;;;;;4147032;28;20287;-64
2023/03/28 02:32:49;;;;;;;3.47;1.30;;;0.60;99.90;;;;;;4150628;28;20322;-64
2023/03/28 02:34:53;;;;;;;1.37;1.10;;;0.60;99.90;;;;;;4146298;28;20739;-63
2023/03/28 02:37:24;;;;;;;1.23;1.00;;;0.50;99.90;;;;;;4160889;28;20275;-63
2023/03/28 02:39:49;;;;;;;1.35;0.93;;;0.50;99.90;;;;;;4161109;28;20329;-63
2023/03/28 02:42:11;;;;;;;1.60;1.37;;;0.50;99.90;;;;;;4162731;28;20029;-64
2023/03/28 02:44:42;;;;;;;1.20;1.10;;;0.50;99.90;;;;;;4154412;28;20336;-66
2023/03/28 02:47:20;;;;;;;2.30;1.40;;;0.50;99.90;;;;;;4146337;28;20317;-64
2023/03/28 02:49:50;;;;;;;2.80;1.33;;;0.50;99.90;;;;;;4152130;28;20325;-63
2023/03/28 02:52:08;;;;;;;1.83;1.37;;;0.60;99.90;;;;;;4146547;28;20745;-64
2023/03/28 02:54:32;;;;;;;6.60;1.87;;;0.50;99.90;;;;;;4156917;28;20285;-63
2023/03/28 02:56:40;;;;;;;2.03;1.10;;;0.50;99.90;;;;;;4145908;28;20260;-69
2023/03/28 02:58:50;;;;;;;1.23;1.10;;;0.50;99.90;;;;;;4147099;28;20271;-64
2023/03/28 03:00:51;;;;;;;2.72;1.55;;;0.50;99.90;;;;;;4149910;28;21184;-62
2023/03/28 03:02:52;;;;;;;1.30;1.20;;;0.50;99.90;;;;;;4157909;28;20486;-64
2023/03/28 03:04:56;;;;;;;1.67;1.50;;;0.50;99.90;;;;;;4146212;28;20290;-74
2023/03/28 03:07:00;;;;;;;1.33;1.07;;;0.50;99.90;;;;;;4146470;28;20299;-63
2023/03/28 03:09:07;;;;;;;3.07;1.10;;;0.50;99.90;;;;;;4159987;28;20677;-63
2023/03/28 03:11:08;;;;;;;1.20;0.90;;;0.50;99.90;;;;;;4148321;28;20302;-63
2023/03/28 03:13:09;;;;;;;1.40;1.00;;;0.40;99.90;;;;;;4150468;28;20274;-63
2023/03/28 03:15:11;;;;;;;1.77;1.40;;;0.50;99.90;;;;;;4152264;28;20334;-63
2023/03/28 03:17:12;;;;;;;1.87;1.40;;;0.40;99.90;;;;;;4145834;28;20276;-63
2023/03/28 03:19:13;;;;;;;1.67;1.40;;;0.50;99.90;;;;;;4153793;28;20286;-63
2023/03/28 03:21:14;;;;;;;4.37;1.60;;;0.50;99.90;;;;;;4145266;28;20829;-63
2023/03/28 03:23:16;;;;;;;2.30;1.77;;;0.40;99.90;;;;;;4153300;28;20279;-68
2023/03/28 03:25:18;;;;;;;2.23;1.80;;;0.50;99.90;;;;;;4161868;28;20325;-64
2023/03/28 03:27:20;;;;;;;3.03;2.07;;;0.50;99.90;;;;;;4160333;28;20267;-62
2023/03/28 03:29:21;;;;;;;3.93;1.63;;;0.40;99.90;;;;;;4161980;28;20780;-63
2023/03/28 03:31:23;;;;;;;5.70;1.97;;;0.40;99.90;;;;;;4147928;28;20271;-63
2023/03/28 03:33:24;;;;;;;3.20;2.00;;;0.40;99.90;;;;;;4148854;28;20251;-63
2023/03/28 03:35:32;;;;;;;3.43;1.97;;;0.40;99.90;;;;;;4147864;28;20340;-64
2023/03/28 03:37:33;;;;;;;2.60;1.63;;;0.40;99.90;;;;;;4161268;28;20267;-63
2023/03/28 03:39:35;;;;;;;2.03;1.60;;;0.40;99.90;;;;;;4161461;28;20282;-63
2023/03/28 03:41:36;;;;;;;3.20;2.20;;;0.40;99.90;;;;;;4161447;28;20692;-67
2023/03/28 03:43:37;;;;;;;3.17;2.17;;;0.40;99.90;;;;;;4152538;28;20268;-63
2023/03/28 03:45:39;;;;;;;5.00;2.37;;;0.40;99.90;;;;;;4145066;28;20314;-63
2023/03/28 03:47:40;;;;;;;2.33;1.90;;;0.30;99.90;;;;;;4145046;28;20263;-63
2023/03/28 03:49:41;;;;;;;5.30;2.37;;;0.30;99.90;;;;;;4144820;28;20394;-69
2023/03/28 03:51:42;;;;;;;3.67;1.87;;;0.30;99.90;;;;;;4159828;28;20279;-62
2023/03/28 03:53:45;;;;;;;4.80;2.40;;;0.30;99.90;;;;;;4148888;28;20673;-64
2023/03/28 03:55:46;;;;;;;3.57;2.03;;;0.20;99.90;;;;;;4160967;28;20329;-64
2023/03/28 03:57:47;;;;;;;3.40;2.07;;;0.20;99.90;;;;;;4161680;28;20329;-70
2023/03/28 03:59:48;;;;;;;4.27;2.50;;;0.20;99.90;;;;;;4159804;28;20267;-64
2023/03/28 04:01:50;;;;;;;2.37;1.87;;;0.20;99.90;;;;;;4151180;28;20258;-63
2023/03/28 04:03:51;;;;;;;2.93;2.30;;;0.20;99.90;;;;;;4144733;28;20283;-64
2023/03/28 04:05:53;;;;;;;2.97;2.00;;;0.20;99.90;;;;;;4144813;28;20313;-63
2023/03/28 04:07:56;;;;;;;3.13;2.50;;;0.20;99.90;;;;;;4144057;28;20279;-63
2023/03/28 04:09:57;;;;;;;3.60;2.37;;;0.20;99.90;;;;;;4144787;28;20357;-64
2023/03/28 04:11:58;;;;;;;2.60;2.23;;;0.20;99.90;;;;;;4144602;28;20268;-63
2023/03/28 04:13:59;;;;;;;3.93;2.80;;;0.20;99.90;;;;;;4144998;28;20255;-64
2023/03/28 04:16:01;;;;;;;6.43;2.77;;;0.20;99.90;;;;;;4144320;28;20264;-63
2023/03/28 04:18:03;;;;;;;2.87;2.13;;;0.20;99.90;;;;;;4158297;28;20278;-72
2023/03/28 04:20:12;;;;;;;4.20;1.73;;;0.20;99.90;;;;;;4160485;28;20275;-64
2023/03/28 04:22:13;;;;;;;2.77;2.10;;;0.20;99.90;;;;;;4144971;28;20820;-65
2023/03/28 04:24:23;;;;;;;5.63;2.20;;;0.20;99.90;;;;;;4151768;28;20259;-63
2023/03/28 04:26:27;;;;;;;2.70;2.38;;;0.10;99.90;;;;;;4139370;28;20776;-64
2023/03/28 04:28:28;;;;;;;4.23;1.83;;;0.20;99.90;;;;;;4132280;28;20038;-64
2023/03/28 04:30:30;;;;;;;2.10;1.90;;;0.10;99.90;;;;;;4147632;28;20861;-62
2023/03/28 04:32:34;;;;;;;3.93;2.10;;;0.10;99.90;;;;;;4148093;28;20287;-62
2023/03/28 04:34:36;;;;;;;5.53;2.27;;;0.10;99.90;;;;;;4143094;28;20283;-63
2023/03/28 04:36:39;;;;;;;3.37;2.33;;;0.10;99.90;;;;;;4145983;28;20283;-63
2023/03/28 04:38:44;;;;;;;2.90;1.87;;;0.10;99.90;;;;;;4143984;28;20323;-63
2023/03/28 04:40:45;;;;;;;4.93;2.20;;;0.10;99.90;;;;;;4144940;28;20360;-63
2023/03/28 04:42:46;;;;;;;3.67;2.23;;;0.00;99.90;;;;;;4148406;28;20271;-70
2023/03/28 04:44:47;;;;;;;3.73;2.07;;;0.00;99.90;;;;;;4142682;28;20353;-62
2023/03/28 04:46:50;;;;;;;4.53;2.50;;;0.00;99.90;;;;;;4144909;28;20267;-63
2023/03/28 04:48:51;;;;;;;2.53;1.97;;;0.00;99.90;;;;;;4149869;28;20278;-63
2023/03/28 04:50:53;;;;;;;4.30;2.10;;;0.00;99.90;;;;;;4142315;28;20862;-66
2023/03/28 04:52:54;;;;;;;2.47;1.97;;;0.00;99.90;;;;;;4144279;28;20325;-63
2023/03/28 04:54:55;;;;;;;3.93;2.10;;;0.00;99.90;;;;;;4144503;28;21791;-63
2023/03/28 04:56:56;;;;;;;6.17;2.27;;;0.00;99.90;;;;;;4158866;28;20274;-64
2023/03/28 04:58:57;;;;;;;3.53;1.80;;;-0.10;99.90;;;;;;4159751;28;20283;-63
2023/03/28 05:01:02;;;;;;;3.50;2.07;;;-0.10;99.90;;;;;;4160519;28;20274;-63
2023/03/28 05:03:03;;;;;;;4.27;2.10;;;-0.10;99.90;;;;;;4160074;28;20333;-63
2023/03/28 05:05:06;;;;;;;2.57;1.90;;;-0.10;99.90;;;;;;4160246;28;20674;-63
2023/03/28 05:07:07;;;;;;;2.10;1.70;;;-0.10;99.90;;;;;;4159577;28;20306;-63
2023/03/28 05:09:09;;;;;;;2.50;1.83;;;-0.10;99.90;;;;;;4160372;28;20328;-64
2023/03/28 05:11:11;;;;;;;3.63;1.97;;;-0.20;99.90;;;;;;4159842;28;20957;-63
2023/03/28 05:13:12;;;;;;;3.63;2.07;;;-0.20;99.90;;;;;;4160680;28;20278;-62
2023/03/28 05:15:14;;;;;;;5.43;2.00;;;-0.20;99.90;;;;;;4159998;28;20743;-65
2023/03/28 05:17:15;;;;;;;2.80;2.23;;;-0.20;99.90;;;;;;4160161;28;20274;-63
2023/03/28 05:19:17;;;;;;;1.97;1.77;;;-0.20;99.90;;;;;;4158491;28;20271;-63
2023/03/28 05:21:18;;;;;;;2.80;2.00;;;-0.20;99.90;;;;;;4160008;28;20281;-64
2023/03/28 05:23:19;;;;;;;5.30;2.63;;;-0.20;99.90;;;;;;4160230;28;20292;-63
2023/03/28 05:25:21;;;;;;;3.83;2.03;;;-0.30;99.90;;;;;;4159815;28;20324;-63
2023/03/28 05:27:22;;;;;;;3.93;2.40;;;-0.20;99.90;;;;;;4159659;28;20254;-63
2023/03/28 05:29:24;;;;;;;2.60;2.40;;;-0.20;99.90;;;;;;4159411;28;20263;-62
2023/03/28 05:31:27;;;;;;;5.40;2.53;;;-0.20;99.90;;;;;;4159750;28;20620;-63
2023/03/28 05:33:31;;;;;;;4.03;2.00;;;-0.20;99.90;;;;;;4159712;28;20320;-63
2023/03/28 05:35:32;;;;;;;4.87;1.83;;;-0.20;99.90;;;;;;4158974;28;20271;-62
2023/03/28 05:37:34;;;;;;;3.10;1.70;;;-0.30;99.90;;;;;;4159776;28;21164;-62
2023/03/28 05:39:35;;;;;;;2.13;1.70;;;-0.30;99.90;;;;;;4159577;28;20380;-63
2023/03/28 05:41:36;;;;;;;2.23;1.40;;;-0.30;99.90;;;;;;4159346;28;20278;-66
2023/03/28 05:43:37;;;;;;;6.43;1.90;;;-0.20;99.90;;;;;;4160163;28;20275;-62
2023/03/28 05:45:38;;;;;;;3.30;1.87;;;-0.20;99.90;;;;;;4159844;28;20321;-62
2023/03/28 05:47:40;;;;;;;3.37;1.87;;;0.10;99.90;;;;;;4159739;28;20267;-62
2023/03/28 05:49:41;;;;;;;5.97;1.90;;;0.40;99.90;;;;;;4159813;28;20330;-70
2023/03/28 05:51:42;;;;;;;5.47;2.43;;;0.60;99.90;;;;;;4159702;28;20306;-64
2023/03/28 05:53:44;;;;;;;3.00;2.07;;;1.00;99.90;;;;;;4159944;28;20718;-63
2023/03/28 05:55:45;;;;;;;2.97;2.23;;;1.20;99.90;;;;;;4159523;28;20301;-73
2023/03/28 05:57:47;;;;;;;2.00;1.40;;;1.50;99.90;;;;;;4159536;28;20271;-63
2023/03/28 05:59:48;;;;;;;4.17;1.90;;;1.70;99.90;;;;;;4158928;28;20262;-63
2023/03/28 06:01:51;;;;;;;3.97;1.30;;;1.80;99.90;;;;;;4159792;28;20340;-65
2023/03/28 06:03:54;;;;;;;2.03;1.60;;;1.70;99.90;;;;;;4159359;28;20270;-63
2023/03/28 06:05:55;;;;;;;3.73;1.97;;;1.70;99.90;;;;;;4159300;28;20270;-64
2023/03/28 06:07:56;;;;;;;3.37;1.50;;;1.70;99.90;;;;;;4159412;28;20341;-65
2023/03/28 06:09:57;;;;;;;5.00;1.50;;;1.60;99.90;;;;;;4159446;28;20325;-69
2023/03/28 06:11:59;;;;;;;2.40;1.23;;;1.50;99.90;;;;;;4159402;28;20263;-69
2023/03/28 06:14:00;;;;;;;1.70;1.07;;;1.40;99.90;;;;;;4159359;28;20271;-69
2023/03/28 06:16:01;;;;;;;3.00;1.70;;;1.40;99.90;;;;;;4159599;28;20371;-70
2023/03/28 06:18:03;;;;;;;1.83;1.53;;;1.50;99.90;;;;;;4157984;28;20290;-69
2023/03/28 06:20:08;;;;;;;2.20;1.30;;;1.50;99.90;;;;;;4159539;28;20266;-65
2023/03/28 06:22:09;;;;;;;3.20;1.43;;;1.40;99.90;;;;;;4159657;28;20279;-62
2023/03/28 06:24:10;;;;;;;4.33;1.50;;;1.30;99.90;;;;;;4159485;28;20845;-63
2023/03/28 06:26:11;;;;;;;2.73;1.30;;;1.30;99.90;;;;;;4159285;28;20340;-63
2023/03/28 06:28:13;;;;;;;4.73;1.23;;;1.30;99.90;;;;;;4159694;28;20263;-62
2023/03/28 06:30:14;;;;;;;4.47;1.20;;;1.40;99.90;;;;;;4159014;28;20263;-63
2023/03/28 06:32:17;;;;;;;3.63;1.10;;;1.70;99.90;;;;;;4159167;28;20275;-64
2023/03/28 06:34:18;;;;;;;2.33;1.33;;;2.10;99.90;;;;;;4158708;28;20400;-64
2023/03/28 06:36:19;;;;;;;3.57;1.70;;;2.40;99.90;;;;;;4159510;28;20266;-68
2023/03/28 06:38:20;;;;;;;2.00;1.20;;;2.50;99.90;;;;;;4159423;28;20616;-63
2023/03/28 06:40:21;;;;;;;4.07;1.10;;;2.70;99.90;;;;;;4159337;28;20642;-64
2023/03/28 06:42:22;;;;;;;1.47;0.93;;;2.60;99.90;;;;;;4159542;28;20333;-63
2023/03/28 06:44:24;;;;;;;2.63;1.07;;;2.60;99.90;;;;;;4159741;28;20320;-63
2023/03/28 06:46:25;;;;;;;2.20;1.13;;;2.20;99.90;;;;;;4159225;28;20263;-69
2023/03/28 06:48:30;;;;;;;2.13;1.10;;;2.10;99.90;;;;;;4161402;28;20609;-63
2023/03/28 06:50:31;;;;;;;2.77;1.23;;;2.10;99.90;;;;;;4162239;28;20286;-62
2023/03/28 06:52:33;;;;;;;3.03;1.10;;;2.10;99.90;;;;;;4162393;28;20271;-64
2023/03/28 06:54:34;;;;;;;1.93;1.03;;;2.00;99.90;;;;;;4162188;28;20263;-63
2023/03/28 06:56:35;;;;;;;3.27;1.40;;;1.80;99.90;;;;;;4162037;28;20652;-63
2023/03/28 06:58:36;;;;;;;2.50;1.30;;;1.60;99.90;;;;;;4162411;28;20665;-75
2023/03/28 07:00:37;;;;;;;3.47;1.40;;;1.50;99.90;;;;;;4161950;28;20357;-69
2023/03/28 07:02:38;;;;;;;2.97;1.13;;;1.40;99.90;;;;;;4162095;28;20320;-62
2023/03/28 07:04:39;;;;;;;5.93;1.00;;;1.40;99.90;;;;;;4159885;28;20325;-69
2023/03/28 07:06:41;;;;;;;3.43;1.33;;;1.40;99.90;;;;;;4161895;28;20251;-62
2023/03/28 07:08:42;;;;;;;2.70;1.00;;;1.40;99.90;;;;;;4161688;28;20336;-63
2023/03/28 07:10:43;;;;;;;1.77;1.00;;;1.30;99.90;;;;;;4160772;28;20650;-63
2023/03/28 07:12:44;;;;;;;1.63;0.90;;;1.30;99.90;;;;;;4162115;28;20271;-62
2023/03/28 07:14:46;;;;;;;4.00;1.30;;;1.20;99.90;;;;;;4162391;28;20362;-63
2023/03/28 07:16:47;;;;;;;3.90;1.67;;;1.20;99.90;;;;;;4161673;28;20639;-65
2023/03/28 07:18:48;;;;;;;5.20;1.93;;;1.20;99.90;;;;;;4161943;28;20271;-62
2023/03/28 07:20:49;;;;;;;1.87;1.20;;;1.20;99.90;;;;;;4161725;28;20328;-63
2023/03/28 07:22:50;;;;;;;5.73;1.17;;;1.20;99.90;;;;;;4161661;28;20255;-63
2023/03/28 07:24:52;;;;;;;5.07;2.10;;;1.20;99.90;;;;;;4161756;28;20762;-63
2023/03/28 07:26:53;;;;;;;2.10;1.57;;;1.20;99.90;;;;;;4161619;28;20262;-63
2023/03/28 07:28:55;;;;;;;3.17;2.00;;;1.20;99.90;;;;;;4161526;28;20270;-63
2023/03/28 07:30:56;;;;;;;4.53;1.67;;;1.20;99.90;;;;;;4161609;28;20286;-63
2023/03/28 07:32:57;;;;;;;3.33;1.90;;;1.10;99.90;;;;;;4161639;28;20258;-67
2023/03/28 07:34:59;;;;;;;4.13;1.50;;;1.10;99.90;;;;;;4161059;28;20312;-63
2023/03/28 07:37:00;;;;;;;4.30;1.73;;;1.20;99.90;;;;;;4161841;28;20262;-62
2023/03/28 07:39:01;;;;;;;3.70;1.10;;;1.40;99.90;;;;;;4161270;28;20259;-63
2023/03/28 07:41:02;;;;;;;2.23;1.70;;;1.50;99.90;;;;;;4161668;28;20788;-63
2023/03/28 07:43:03;;;;;;;2.93;1.40;;;1.50;99.90;;;;;;4161070;28;20283;-71
2023/03/28 07:45:05;;;;;;;2.23;1.23;;;1.60;99.90;;;;;;4161761;28;20278;-69
2023/03/28 07:47:07;;;;;;;1.80;1.10;;;1.70;99.90;;;;;;4161389;28;20270;-64
2023/03/28 07:49:09;;;;;;;1.90;1.03;;;1.90;99.90;;;;;;4160948;28;20321;-64
2023/03/28 07:51:11;;;;;;;3.73;1.97;;;2.10;99.90;;;;;;4160383;28;20713;-64
2023/03/28 07:53:12;;;;;;;3.80;1.57;;;2.40;99.90;;;;;;4161364;28;20283;-63
2023/03/28 07:55:14;;;;;;;4.00;1.37;;;2.60;98.90;;;;;;4161451;28;20275;-67
2023/03/28 07:57:15;;;;;;;4.27;1.73;;;2.70;98.50;;;;;;4160739;28;20291;-65
2023/03/28 07:59:16;;;;;;;3.43;1.83;;;2.80;98.60;;;;;;4161066;28;20275;-73
2023/03/28 08:01:21;;;;;;;8.33;2.20;;;3.00;98.50;;;;;;4160886;28;20282;-63
2023/03/28 08:03:22;;;;;;;5.10;2.07;;;3.20;98.70;;;;;;4161504;28;20330;-63
2023/03/28 08:05:25;;;;;;;4.17;2.70;;;3.20;97.20;;;;;;4161070;28;20263;-67
2023/03/28 08:07:27;;;;;;;2.63;1.60;;;3.30;97.50;;;;;;4160582;28;20287;-70
2023/03/28 08:09:28;;;;;;;2.67;0.90;;;3.40;97.50;;;;;;4160837;28;20274;-64
2023/03/28 08:11:29;;;;;;;3.50;1.60;;;3.20;96.40;;;;;;4161023;28;20832;-65
2023/03/28 08:13:30;;;;;;;2.80;1.83;;;3.30;96.40;;;;;;4161316;28;20460;-62
2023/03/28 08:15:31;;;;;;;2.03;1.20;;;3.30;95.60;;;;;;4161349;28;20313;-64
2023/03/28 08:17:32;;;;;;;6.10;1.07;;;3.30;95.70;;;;;;4161066;28;20267;-63
2023/03/28 08:19:34;;;;;;;3.53;1.33;;;3.40;96.10;;;;;;4161002;28;20274;-68
2023/03/28 08:21:35;;;;;;;4.40;1.93;;;3.60;95.70;;;;;;4160712;28;20271;-63
2023/03/28 08:23:36;;;;;;;3.50;0.90;;;3.80;95.40;;;;;;4161488;28;20352;-63
2023/03/28 08:25:37;;;;;;;3.87;2.17;;;3.80;94.60;;;;;;4161412;28;20808;-64
2023/03/28 08:27:38;;;;;;;1.57;1.33;;;3.90;94.40;;;;;;4161389;28;20274;-64
2023/03/28 08:29:40;;;;;;;2.23;1.00;;;3.90;94.40;;;;;;4161215;28;20267;-69
2023/03/28 08:31:41;;;;;;;3.80;0.77;;;3.70;93.30;;;;;;4161466;28;20681;-63
2023/03/28 08:33:43;;;;;;;3.97;1.00;;;3.50;92.60;;;;;;4161184;28;20262;-64
2023/03/28 08:35:45;;;;;;;1.30;1.00;;;3.50;92.80;;;;;;4160429;28;20731;-63
2023/03/28 08:37:47;;;;;;;1.13;0.53;;;3.50;93.10;;;;;;4160213;28;20684;-64
2023/03/28 08:39:48;;;;;;;2.23;0.80;;;3.70;93.20;;;;;;4160353;28;20341;-63
2023/03/28 08:42:35;;;;;;;1.87;0.73;;;3.70;92.80;;;;;;4160864;28;20847;-63
2023/03/28 08:45:00;;;;;;;4.60;0.97;;;3.70;92.20;;;;;;4099147;28;20344;-63
2023/03/28 08:47:24;;;;;;;3.10;0.80;;;3.70;92.40;;;;;;4160615;28;21096;-63
2023/03/28 08:49:25;;;;;;;1.43;0.80;;;3.80;92.10;;;;;;4160536;28;20684;-66
2023/03/28 08:51:37;;;;;;;1.17;0.87;;;3.90;92.00;;;;;;4160318;28;20355;-63
2023/03/28 08:53:43;;;;;;;2.43;0.80;;;4.00;91.30;;;;;;4160141;28;20275;-62
2023/03/28 08:55:46;;;;;;;1.97;0.73;;;4.00;91.20;;;;;;4160143;28;20267;-62
2023/03/28 08:57:51;;;;;;;3.60;1.10;;;3.90;90.60;;;;;;4160314;28;21017;-67
2023/03/28 09:00:27;;;;;;;3.97;0.97;;;3.80;91.30;;;;;;4160350;28;20337;-64
2023/03/28 09:02:30;;;;;;;2.83;0.90;;;3.80;90.50;;;;;;4160069;28;20283;-66
2023/03/28 09:04:34;;;;;;;1.87;0.60;;;3.80;90.30;;;;;;4160567;28;20317;-64
2023/03/28 09:06:39;;;;;;;1.80;0.70;;;3.80;90.30;;;;;;4160145;28;20263;-64
2023/03/28 09:09:03;;;;;;;2.07;0.83;;;3.80;89.50;;;;;;4158381;28;20286;-64
2023/03/28 09:11:11;;;;;;;3.73;0.60;;;3.80;89.50;;;;;;4159488;28;20282;-64
2023/03/28 09:13:18;;;;;;;3.90;0.63;;;3.90;89.70;;;;;;4159931;28;20274;-68
2023/03/28 09:15:34;;;;;;;1.80;0.50;;;3.90;88.60;;;;;;4160531;28;20738;-68
2023/03/28 09:17:48;;;;;;;2.07;0.87;;;3.80;88.20;;;;;;4160368;28;20271;-65
2023/03/28 09:20:10;;;;;;;12.10;1.17;;;3.80;87.80;;;;;;4160111;28;20317;-65
2023/03/28 09:22:36;;;;;;;3.27;2.03;;;3.80;88.30;;;;;;4160271;28;20275;-70
2023/03/28 09:24:40;;;;;;;2.17;1.07;;;3.80;87.40;;;;;;4160331;28;20262;-64
2023/03/28 09:27:11;;;;;;;2.80;0.60;;;3.80;87.70;;;;;;4160181;28;20278;-65
2023/03/28 09:29:23;;;;;;;3.25;0.70;;;3.90;87.10;;;;;;4159986;28;20321;-69
2023/03/28 09:31:34;;;;;;;1.20;0.50;;;3.80;85.40;;;;;;4159495;28;20053;-64
2023/03/28 09:33:39;;;;;;;2.72;1.13;;;3.80;85.50;;;;;;4159994;28;20800;-64
2023/03/28 09:35:41;;;;;;;4.90;1.03;;;3.80;86.20;;;;;;4159687;28;20045;-65
2023/03/28 09:37:50;;;;;;;5.33;0.90;;;3.90;87.30;;;;;;4159496;28;20329;-66
2023/03/28 09:39:54;;;;;;;1.50;0.60;;;4.00;85.60;;;;;;4159174;28;20278;-67
2023/03/28 09:42:11;;;;;;;2.03;0.73;;;4.10;85.60;;;;;;4159884;28;20263;-67
2023/03/28 09:44:16;;;;;;;1.17;0.60;;;4.10;83.90;;;;;;4159847;28;21023;-65
2023/03/28 09:46:29;;;;;;;6.10;1.43;;;4.10;85.60;;;;;;4159468;28;20332;-65
2023/03/28 09:48:32;;;;;;;5.50;1.23;;;4.00;83.90;;;;;;4160003;28;20313;-62
2023/03/28 09:50:33;;;;;;;3.90;1.37;;;4.10;84.20;;;;;;4159770;28;20337;-72
2023/03/28 09:52:35;;;;;;;1.70;0.73;;;4.20;84.30;;;;;;4159877;28;20360;-66
2023/03/28 09:54:39;;;;;;;3.83;0.97;;;4.30;83.80;;;;;;4159671;28;20808;-64
2023/03/28 09:56:43;;;;;;;1.80;0.80;;;4.30;83.40;;;;;;4159746;28;20267;-65
2023/03/28 09:58:58;;;;;;;5.10;0.70;;;4.40;82.10;;;;;;4159548;28;20740;-64
2023/03/28 10:00:59;;;;;;;2.13;0.60;;;4.40;81.20;;;;;;4159559;28;20263;-69
2023/03/28 10:03:00;;;;;;;9.00;1.10;;;4.40;82.30;;;;;;4158996;28;20668;-66
2023/03/28 10:05:02;;;;;;;1.30;0.80;;;4.30;83.00;;;;;;4159198;28;20578;-64
2023/03/28 10:07:09;;;;;;;0.83;0.60;;;4.50;83.40;;;;;;4159456;28;20267;-63
2023/03/28 10:09:18;;;;;;;2.17;0.63;;;4.50;82.60;;;;;;4159299;28;21068;-65
2023/03/28 10:11:21;;;;;;;5.53;0.83;;;4.50;82.90;;;;;;4159145;28;20286;-63
2023/03/28 10:13:22;;;;;;;2.10;0.40;;;4.40;83.10;;;;;;4159652;28;20601;-72
2023/03/28 10:15:33;;;;;;;2.60;0.40;;;4.30;81.60;;;;;;4159762;28;20267;-63
2023/03/28 10:17:36;;;;;;;1.83;0.70;;;4.40;83.30;;;;;;4159536;28;20823;-63
2023/03/28 10:19:41;;;;;;;8.80;0.80;;;4.40;82.90;;;;;;4159210;28;20095;-63
2023/03/28 10:21:47;;;;;;;0.90;0.50;;;4.30;81.50;;;;;;4160218;28;20300;-64
2023/03/28 10:24:01;;;;;;;0.87;0.50;;;4.40;83.70;;;;;;4162122;28;20262;-64
2023/03/28 10:26:03;;;;;;;2.73;0.83;;;4.40;83.80;;;;;;4162985;28;20324;-63
2023/03/28 10:28:07;;;;;;;3.33;0.60;;;4.50;83.80;;;;;;4162446;28;20309;-64
2023/03/28 10:30:25;;;;;;;0.93;0.70;;;4.40;82.70;;;;;;4162541;28;20332;-63
2023/03/28 10:32:28;;;;;;;2.37;0.87;;;4.40;81.70;;;;;;4161989;28;20705;-62
2023/03/28 10:34:32;;;;;;;2.10;0.77;;;4.20;83.10;;;;;;4162905;28;20271;-63
2023/03/28 10:36:43;;;;;;;1.37;0.50;;;4.40;83.70;;;;;;4161922;28;20262;-63
2023/03/28 10:38:48;;;;;;;2.10;0.80;;;4.40;81.90;;;;;;4162661;28;20271;-64
2023/03/28 10:41:09;;;;;;;5.57;0.80;;;4.50;82.20;;;;;;4160485;28;20034;-65
2023/03/28 10:43:12;;;;;;;4.23;0.80;;;4.50;81.80;;;;;;4162637;28;20266;-63
2023/03/28 10:45:22;;;;;;;1.77;0.60;;;4.50;80.60;;;;;;4162661;28;20275;-62
2023/03/28 10:47:24;;;;;;;3.15;0.47;;;4.50;79.20;;;;;;4162675;28;20979;-62
2023/03/28 10:49:27;;;;;;;2.83;0.63;;;4.30;80.00;;;;;;4162092;28;20091;-64
2023/03/28 10:51:31;;;;;;;1.77;0.70;;;4.30;81.20;;;;;;4161845;28;20302;-66
2023/03/28 10:53:59;;;;;;;1.30;0.70;;;4.20;80.50;;;;;;4161837;28;20336;-65
2023/03/28 10:56:25;;;;;;;6.33;2.00;;;4.30;83.30;;;;;;4162011;28;20673;-72
2023/03/28 10:58:31;;;;;;;5.40;1.23;;;4.50;82.20;;;;;;4161382;28;20337;-64
2023/03/28 11:00:50;;;;;;;3.23;0.80;;;4.60;82.00;;;;;;4162302;28;20270;-63
2023/03/28 11:03:05;;;;;;;4.93;0.60;;;4.60;79.40;;;;;;4160271;28;20325;-70